createdAt,value
2023-03-08T00:00:44.602Z,97.00
2023-03-08T00:03:15.491Z,97.00
2023-03-08T00:08:09.632Z,97.00
2023-03-08T00:10:39.157Z,97.10
2023-03-08T00:13:05.827Z,97.40
2023-03-08T00:15:36.017Z,96.70
2023-03-08T00:18:02.936Z,97.00
2023-03-08T00:20:34.353Z,97.40
2023-03-08T00:23:01.114Z,97.60
2023-03-08T00:25:34.820Z,97.90
2023-03-08T00:28:03.774Z,98.10
2023-03-08T00:30:30.710Z,98.00
2023-03-08T00:32:57.430Z,98.00
2023-03-08T00:35:24.094Z,98.10
2023-03-08T00:37:53.269Z,97.80
2023-03-08T00:40:19.998Z,98.20
2023-03-08T00:42:49.057Z,98.40
2023-03-08T00:45:15.877Z,98.20
2023-03-08T00:47:42.605Z,98.40
2023-03-08T00:50:12.658Z,98.50
2023-03-08T00:52:41.825Z,98.80
2023-03-08T00:55:11.148Z,99.30
2023-03-08T00:57:37.781Z,99.30
2023-03-08T01:00:10.783Z,99.60
2023-03-08T01:02:42.171Z,99.80
2023-03-08T01:05:09.634Z,99.90
2023-03-08T01:07:38.751Z,99.90
2023-03-08T01:10:05.964Z,99.90
2023-03-08T01:12:34.144Z,99.90
2023-03-08T01:15:01.226Z,99.90
2023-03-08T01:17:27.876Z,99.90
2023-03-08T01:19:54.927Z,99.90
2023-03-08T01:22:21.548Z,99.90
2023-03-08T01:24:49.253Z,99.90
2023-03-08T01:27:16.956Z,99.90
2023-03-08T01:29:44.542Z,99.90
2023-03-08T01:32:13.744Z,99.90
2023-03-08T01:34:40.413Z,99.90
2023-03-08T01:37:07.143Z,99.90
2023-03-08T01:39:36.358Z,99.90
2023-03-08T01:42:08.350Z,99.90
2023-03-08T01:44:51.930Z,99.90
2023-03-08T01:47:24.242Z,99.90
2023-03-08T01:49:52.442Z,99.90
2023-03-08T01:52:26.515Z,99.90
2023-03-08T01:54:57.091Z,99.90
2023-03-08T01:57:34.858Z,99.90
2023-03-08T02:00:29.483Z,99.90
2023-03-08T02:03:09.265Z,99.90
2023-03-08T02:05:43.441Z,99.90
2023-03-08T02:08:10.147Z,99.90
2023-03-08T02:10:37.976Z,99.90
2023-03-08T02:13:09.469Z,99.90
2023-03-08T02:15:41.060Z,99.90
2023-03-08T02:18:08.125Z,99.90
2023-03-08T02:20:38.413Z,99.90
2023-03-08T02:23:21.025Z,99.90
2023-03-08T02:25:53.632Z,99.90
2023-03-08T02:28:22.374Z,99.90
2023-03-08T02:30:49.655Z,99.90
2023-03-08T02:33:17.407Z,99.90
2023-03-08T02:35:47.033Z,99.90
2023-03-08T02:38:15.884Z,99.90
2023-03-08T02:40:42.739Z,99.90
2023-03-08T02:43:10.019Z,99.90
2023-03-08T02:45:39.057Z,99.90
2023-03-08T02:48:06.270Z,99.90
2023-03-08T02:50:33.190Z,99.90
2023-03-08T02:52:59.830Z,99.90
2023-03-08T02:55:28.904Z,99.90
2023-03-08T02:57:55.706Z,99.90
2023-03-08T03:00:22.513Z,99.90
2023-03-08T03:02:51.665Z,99.90
2023-03-08T03:05:21.028Z,99.90
2023-03-08T03:07:50.420Z,99.90
2023-03-08T03:10:19.367Z,99.90
2023-03-08T03:12:46.132Z,99.90
2023-03-08T03:15:12.957Z,99.90
2023-03-08T03:17:41.915Z,99.90
2023-03-08T03:20:09.976Z,99.90
2023-03-08T03:22:39.480Z,99.90
2023-03-08T03:25:06.592Z,99.90
2023-03-08T03:27:33.309Z,99.90
2023-03-08T03:30:00.058Z,99.90
2023-03-08T03:32:29.729Z,99.90
2023-03-08T03:37:23.589Z,99.90
2023-03-08T03:39:50.291Z,99.90
2023-03-08T03:42:18.453Z,99.90
2023-03-08T03:44:47.562Z,99.90
2023-03-08T03:47:14.314Z,99.90
2023-03-08T03:49:43.411Z,99.90
2023-03-08T03:52:10.102Z,99.90
2023-03-08T03:54:36.778Z,99.90
2023-03-08T03:57:03.681Z,99.90
2023-03-08T03:59:30.538Z,99.90
2023-03-08T04:01:57.215Z,99.90
2023-03-08T04:04:26.248Z,99.90
2023-03-08T04:06:52.908Z,99.90
2023-03-08T04:09:19.905Z,99.90
2023-03-08T04:11:48.767Z,99.90
2023-03-08T04:14:20.148Z,99.90
2023-03-08T04:19:18.420Z,99.90
2023-03-08T04:21:45.109Z,99.90
2023-03-08T04:24:14.164Z,99.90
2023-03-08T04:26:43.084Z,99.90
2023-03-08T04:29:10.361Z,99.90
2023-03-08T04:31:37.228Z,99.90
2023-03-08T04:34:07.060Z,99.90
2023-03-08T04:36:33.787Z,99.90
2023-03-08T04:39:00.503Z,99.90
2023-03-08T04:41:29.599Z,99.90
2023-03-08T04:43:59.920Z,99.90
2023-03-08T04:46:27.896Z,99.90
2023-03-08T04:48:55.959Z,99.90
2023-03-08T04:51:24.994Z,99.90
2023-03-08T04:53:51.837Z,99.90
2023-03-08T04:56:18.914Z,99.90
2023-03-08T04:58:46.158Z,99.90
2023-03-08T05:01:13.870Z,99.90
2023-03-08T05:03:40.925Z,99.90
2023-03-08T05:06:08.581Z,99.90
2023-03-08T05:08:40.072Z,99.90
2023-03-08T05:11:09.331Z,99.90
2023-03-08T05:13:38.511Z,99.90
2023-03-08T05:16:09.072Z,99.90
2023-03-08T05:18:38.335Z,99.90
2023-03-08T05:21:08.451Z,99.90
2023-03-08T05:23:37.678Z,99.90
2023-03-08T05:26:06.182Z,99.90
2023-03-08T05:28:35.176Z,99.90
2023-03-08T05:31:24.563Z,99.90
2023-03-08T05:33:52.204Z,99.90
2023-03-08T05:36:22.299Z,99.90
2023-03-08T05:38:53.710Z,99.90
2023-03-08T05:41:20.696Z,99.90
2023-03-08T05:43:47.844Z,99.90
2023-03-08T05:46:17.871Z,99.90
2023-03-08T05:48:45.192Z,99.90
2023-03-08T05:51:14.834Z,99.90
2023-03-08T05:53:42.229Z,99.90
2023-03-08T05:56:22.975Z,99.90
2023-03-08T06:01:25.596Z,99.90
2023-03-08T06:03:56.402Z,99.90
2023-03-08T06:06:25.860Z,99.90
2023-03-08T06:08:53.980Z,99.90
2023-03-08T06:11:20.645Z,99.90
2023-03-08T06:13:47.327Z,99.90
2023-03-08T06:16:18.769Z,99.90
2023-03-08T06:21:21.288Z,99.90
2023-03-08T06:23:50.643Z,99.90
2023-03-08T06:26:17.636Z,99.90
2023-03-08T06:28:44.436Z,99.90
2023-03-08T06:31:13.692Z,99.90
2023-03-08T06:36:18.967Z,99.90
2023-03-08T06:38:49.081Z,99.90
2023-03-08T06:41:20.056Z,99.90
2023-03-08T06:43:47.091Z,99.90
2023-03-08T06:46:18.153Z,99.90
2023-03-08T06:51:15.317Z,99.90
2023-03-08T06:53:42.238Z,99.90
2023-03-08T06:56:11.947Z,99.90
2023-03-08T06:58:41.771Z,99.90
2023-03-08T07:01:09.837Z,99.90
2023-03-08T07:03:38.888Z,99.90
2023-03-08T07:06:10.202Z,99.90
2023-03-08T07:08:38.307Z,99.90
2023-03-08T07:11:06.556Z,99.90
2023-03-08T07:13:38.552Z,99.90
2023-03-08T07:16:07.484Z,99.90
2023-03-08T07:23:28.365Z,99.90
2023-03-08T07:25:55.186Z,99.90
2023-03-08T07:28:21.853Z,99.90
2023-03-08T07:30:52.090Z,99.90
2023-03-08T07:33:19.979Z,99.90
2023-03-08T07:35:49.198Z,99.90
2023-03-08T07:38:16.952Z,99.90
2023-03-08T07:40:43.774Z,99.90
2023-03-08T07:45:39.643Z,99.90
2023-03-08T07:48:08.782Z,99.90
2023-03-08T07:50:40.352Z,99.90
2023-03-08T07:53:08.089Z,99.90
2023-03-08T07:55:39.609Z,99.90
2023-03-08T07:58:06.342Z,99.90
2023-03-08T08:03:04.584Z,99.90
2023-03-08T08:05:33.489Z,99.90
2023-03-08T08:08:02.660Z,99.90
2023-03-08T08:10:31.767Z,99.90
2023-03-08T08:12:58.493Z,99.90
2023-03-08T08:15:25.802Z,99.90
2023-03-08T08:17:53.085Z,99.90
2023-03-08T08:20:22.429Z,99.90
2023-03-08T08:22:52.038Z,99.90
2023-03-08T08:25:18.996Z,99.90
2023-03-08T08:27:48.105Z,99.90
2023-03-08T08:30:15.908Z,99.90
2023-03-08T08:32:44.896Z,99.90
2023-03-08T08:35:11.696Z,99.90
2023-03-08T08:37:38.435Z,99.90
2023-03-08T08:40:07.930Z,99.90
2023-03-08T08:42:34.843Z,99.90
2023-03-08T08:45:01.510Z,99.90
2023-03-08T08:47:29.656Z,99.90
2023-03-08T08:49:56.382Z,99.90
2023-03-08T08:52:25.301Z,99.90
2023-03-08T08:54:53.219Z,99.90
2023-03-08T08:57:19.932Z,99.90
2023-03-08T08:59:46.778Z,99.90
2023-03-08T09:02:15.990Z,99.90
2023-03-08T09:04:42.790Z,99.90
2023-03-08T09:07:14.257Z,99.90
2023-03-08T09:09:40.918Z,99.90
2023-03-08T09:12:08.080Z,99.90
2023-03-08T09:14:37.242Z,99.90
2023-03-08T09:17:05.983Z,99.90
2023-03-08T09:19:33.098Z,99.90
2023-03-08T09:21:59.761Z,99.90
2023-03-08T09:24:28.861Z,99.90
2023-03-08T09:27:00.334Z,99.90
2023-03-08T09:29:27.147Z,99.90
2023-03-08T09:31:53.902Z,99.90
2023-03-08T09:34:20.727Z,99.90
2023-03-08T09:36:47.603Z,99.90
2023-03-08T09:39:14.607Z,99.90
2023-03-08T09:41:52.753Z,99.90
2023-03-08T09:44:30.929Z,99.90
2023-03-08T09:47:32.967Z,99.90
2023-03-08T09:50:14.062Z,99.90
2023-03-08T09:52:54.509Z,99.90
2023-03-08T09:55:30.498Z,99.90
2023-03-08T09:58:05.653Z,99.90
2023-03-08T10:00:41.679Z,99.90
2023-03-08T10:03:20.378Z,99.90
2023-03-08T10:06:40.726Z,99.90
2023-03-08T10:09:41.710Z,99.90
2023-03-08T10:12:26.520Z,99.90
2023-03-08T10:15:02.186Z,99.90
2023-03-08T10:17:44.394Z,99.90
2023-03-08T10:20:19.906Z,99.90
2023-03-08T10:22:56.136Z,99.90
2023-03-08T10:25:28.727Z,99.90
2023-03-08T10:27:56.992Z,99.90
2023-03-08T10:30:29.532Z,99.90
2023-03-08T10:33:01.723Z,99.90
2023-03-08T10:35:37.617Z,99.90
2023-03-08T10:38:16.980Z,99.90
2023-03-08T10:40:46.877Z,99.90
2023-03-08T10:43:30.650Z,99.90
2023-03-08T10:46:06.517Z,99.90
2023-03-08T10:48:33.375Z,99.90
2023-03-08T10:51:03.073Z,99.90
2023-03-08T10:53:30.900Z,99.90
2023-03-08T10:56:00.258Z,99.90
2023-03-08T10:58:33.251Z,99.70
2023-03-08T11:01:05.591Z,99.20
2023-03-08T11:03:35.274Z,98.70
2023-03-08T11:06:14.008Z,99.00
2023-03-08T11:08:54.855Z,98.50
2023-03-08T11:11:24.400Z,98.40
2023-03-08T11:13:55.026Z,98.10
2023-03-08T11:16:21.642Z,97.90
2023-03-08T11:19:15.507Z,97.30
2023-03-08T11:22:07.027Z,97.10
2023-03-08T11:24:39.894Z,97.00
2023-03-08T11:27:24.435Z,96.20
2023-03-08T11:30:06.587Z,96.40
2023-03-08T11:32:43.532Z,95.10
2023-03-08T11:35:24.292Z,95.00
2023-03-08T11:38:03.822Z,95.30
2023-03-08T11:40:48.937Z,94.80
2023-03-08T11:43:33.299Z,94.70
2023-03-08T11:46:12.435Z,94.40
2023-03-08T11:48:57.968Z,95.10
2023-03-08T11:51:38.796Z,95.50
2023-03-08T11:54:26.750Z,95.70
2023-03-08T11:57:02.390Z,95.10
2023-03-08T11:59:36.413Z,95.10
2023-03-08T12:02:11.754Z,94.90
2023-03-08T12:05:01.670Z,94.70
2023-03-08T12:07:47.607Z,96.10
2023-03-08T12:10:29.218Z,95.30
2023-03-08T12:13:05.760Z,95.40
2023-03-08T12:16:13.433Z,95.20
2023-03-08T12:18:56.064Z,95.30
2023-03-08T12:21:43.792Z,95.40
2023-03-08T12:24:25.669Z,95.30
2023-03-08T12:27:13.408Z,95.30
2023-03-08T12:29:48.071Z,95.50
2023-03-08T12:32:17.281Z,95.70
2023-03-08T12:34:48.577Z,95.30
2023-03-08T12:37:24.024Z,95.30
2023-03-08T12:39:56.803Z,95.50
2023-03-08T12:42:42.041Z,95.60
2023-03-08T12:45:23.209Z,95.30
2023-03-08T12:47:58.520Z,95.60
2023-03-08T12:50:25.532Z,95.80
2023-03-08T12:52:52.301Z,96.50
2023-03-08T12:55:33.132Z,96.50
2023-03-08T12:58:03.085Z,97.30
2023-03-08T13:00:37.481Z,96.60
2023-03-08T13:03:06.352Z,97.30
2023-03-08T13:05:38.620Z,96.90
2023-03-08T13:08:14.308Z,97.70
2023-03-08T13:10:52.170Z,97.80
2023-03-08T13:13:37.469Z,98.30
2023-03-08T13:16:20.152Z,98.70
2023-03-08T13:18:50.168Z,98.70
2023-03-08T13:21:36.626Z,99.90
2023-03-08T13:24:13.592Z,99.90
2023-03-08T13:26:52.539Z,99.90
2023-03-08T13:29:20.532Z,99.90
2023-03-08T13:31:48.561Z,99.90
2023-03-08T13:34:35.137Z,99.90
2023-03-08T13:39:30.687Z,99.90
2023-03-08T13:42:11.814Z,99.90
2023-03-08T13:44:38.942Z,99.90
2023-03-08T13:47:23.682Z,99.90
2023-03-08T13:49:52.218Z,99.90
2023-03-08T13:52:26.997Z,99.90
2023-03-08T13:54:56.515Z,99.90
2023-03-08T13:57:28.717Z,99.90
2023-03-08T13:59:58.866Z,99.90
2023-03-08T14:02:28.188Z,99.90
2023-03-08T14:04:58.295Z,99.90
2023-03-08T14:07:28.378Z,99.90
2023-03-08T14:09:57.971Z,99.90
2023-03-08T14:12:28.977Z,99.90
2023-03-08T14:15:02.511Z,99.90
2023-03-08T14:17:31.862Z,99.90
2023-03-08T14:20:07.845Z,99.90
2023-03-08T14:22:40.111Z,99.90
2023-03-08T14:25:20.171Z,99.90
2023-03-08T14:27:49.404Z,99.90
2023-03-08T14:30:27.573Z,99.90
2023-03-08T14:33:07.055Z,99.90
2023-03-08T14:35:37.391Z,99.90
2023-03-08T14:38:14.491Z,99.90
2023-03-08T14:40:49.212Z,99.90
2023-03-08T14:43:21.747Z,99.90
2023-03-08T14:46:01.094Z,99.90
2023-03-08T14:48:34.767Z,99.90
2023-03-08T14:51:05.335Z,99.90
2023-03-08T14:53:34.477Z,99.90
2023-03-08T14:56:05.497Z,99.90
2023-03-08T14:58:38.983Z,99.90
2023-03-08T15:01:05.728Z,99.90
2023-03-08T15:03:34.780Z,99.90
2023-03-08T15:06:22.679Z,99.90
2023-03-08T15:08:50.040Z,99.90
2023-03-08T15:11:17.165Z,99.90
2023-03-08T15:13:45.959Z,99.90
2023-03-08T15:16:15.319Z,99.90
2023-03-08T15:18:44.811Z,99.90
2023-03-08T15:21:20.736Z,99.90
2023-03-08T15:23:49.117Z,99.90
2023-03-08T15:26:24.374Z,99.90
2023-03-08T15:28:54.067Z,99.90
2023-03-08T15:31:21.677Z,99.90
2023-03-08T15:33:50.587Z,99.90
2023-03-08T15:36:18.963Z,99.90
2023-03-08T15:38:47.933Z,99.90
2023-03-08T15:41:16.731Z,99.90
2023-03-08T15:43:43.752Z,99.90
2023-03-08T15:46:14.514Z,99.90
2023-03-08T15:48:41.657Z,99.90
2023-03-08T15:51:21.206Z,99.90
2023-03-08T15:53:49.099Z,99.90
2023-03-08T15:56:18.428Z,99.90
2023-03-08T15:58:45.110Z,99.90
2023-03-08T16:01:14.072Z,99.90
2023-03-08T16:03:41.076Z,99.90
2023-03-08T16:06:16.553Z,99.90
2023-03-08T16:08:43.273Z,99.90
2023-03-08T16:11:17.417Z,99.90
2023-03-08T16:16:13.531Z,99.90
2023-03-08T16:18:43.982Z,99.90
2023-03-08T16:21:13.066Z,99.90
2023-03-08T16:26:16.168Z,99.90
2023-03-08T16:28:47.029Z,99.90
2023-03-08T16:31:15.780Z,99.90
2023-03-08T16:33:44.742Z,99.90
2023-03-08T16:36:12.688Z,99.90
2023-03-08T16:38:39.752Z,99.90
2023-03-08T16:41:12.658Z,99.90
2023-03-08T16:43:48.936Z,99.90
2023-03-08T16:46:18.563Z,99.90
2023-03-08T16:48:49.112Z,99.90
2023-03-08T16:51:18.707Z,99.90
2023-03-08T16:53:45.582Z,99.90
2023-03-08T16:56:24.519Z,99.90
2023-03-08T16:58:53.057Z,99.90
2023-03-08T17:01:23.410Z,99.90
2023-03-08T17:03:52.666Z,99.90
2023-03-08T17:06:21.891Z,99.90
2023-03-08T17:08:54.855Z,99.90
2023-03-08T17:11:24.797Z,99.90
2023-03-08T17:13:58.655Z,99.90
2023-03-08T17:16:35.529Z,99.90
2023-03-08T17:19:06.779Z,99.90
2023-03-08T17:21:38.200Z,99.90
2023-03-08T17:24:14.163Z,99.90
2023-03-08T17:26:44.371Z,99.90
2023-03-08T17:29:11.419Z,99.90
2023-03-08T17:31:40.580Z,99.90
2023-03-08T17:34:07.807Z,99.90
2023-03-08T17:36:34.618Z,99.90
2023-03-08T17:39:04.123Z,99.90
2023-03-08T17:41:32.969Z,99.90
2023-03-08T17:43:59.687Z,99.90
2023-03-08T17:46:30.248Z,99.90
2023-03-08T17:48:57.142Z,99.90
2023-03-08T17:51:26.634Z,99.90
2023-03-08T17:54:03.081Z,99.90
2023-03-08T17:56:31.531Z,99.90
2023-03-08T17:59:00.098Z,99.90
2023-03-08T18:01:29.441Z,99.90
2023-03-08T18:03:57.626Z,99.90
2023-03-08T18:06:28.669Z,99.90
2023-03-08T18:09:01.501Z,99.90
2023-03-08T18:11:28.803Z,99.90
2023-03-08T18:13:55.988Z,99.90
2023-03-08T18:16:26.251Z,99.90
2023-03-08T18:18:53.043Z,99.90
2023-03-08T18:21:20.770Z,99.90
2023-03-08T18:23:52.837Z,99.90
2023-03-08T18:26:19.720Z,99.90
2023-03-08T18:28:46.845Z,99.90
2023-03-08T18:31:20.891Z,99.90
2023-03-08T18:33:54.692Z,99.90
2023-03-08T18:36:22.261Z,99.90
2023-03-08T18:38:49.460Z,99.90
2023-03-08T18:41:25.767Z,99.90
2023-03-08T18:43:56.764Z,99.90
2023-03-08T18:46:28.712Z,99.90
2023-03-08T18:49:00.762Z,99.90
2023-03-08T18:51:29.172Z,99.90
2023-03-08T18:53:56.554Z,99.90
2023-03-08T18:56:25.676Z,99.90
2023-03-08T18:58:53.659Z,99.90
2023-03-08T19:01:20.830Z,99.90
2023-03-08T19:03:47.822Z,99.90
2023-03-08T19:06:17.578Z,99.90
2023-03-08T19:08:46.836Z,99.90
2023-03-08T19:11:23.129Z,99.90
2023-03-08T19:13:55.211Z,99.90
2023-03-08T19:16:29.418Z,99.90
2023-03-08T19:19:00.867Z,99.90
2023-03-08T19:21:30.470Z,99.90
2023-03-08T19:24:00.101Z,99.90
2023-03-08T19:26:38.737Z,99.90
2023-03-08T19:29:17.736Z,99.90
2023-03-08T19:31:46.500Z,99.90
2023-03-08T19:34:13.775Z,99.90
2023-03-08T19:36:41.649Z,99.90
2023-03-08T19:39:12.213Z,99.90
2023-03-08T19:41:39.026Z,99.90
2023-03-08T19:44:07.156Z,99.90
2023-03-08T19:46:42.538Z,99.90
2023-03-08T19:49:12.858Z,99.90
2023-03-08T19:51:39.803Z,99.90
2023-03-08T19:54:11.597Z,99.90
2023-03-08T19:56:38.342Z,99.90
2023-03-08T19:59:12.028Z,99.90
2023-03-08T20:01:41.774Z,99.90
2023-03-08T20:04:09.876Z,99.90
2023-03-08T20:06:38.529Z,99.90
2023-03-08T20:09:07.820Z,99.90
2023-03-08T20:11:34.760Z,99.90
2023-03-08T20:14:01.636Z,99.90
2023-03-08T20:16:31.324Z,99.90
2023-03-08T20:19:00.700Z,99.90
2023-03-08T20:21:29.849Z,99.90
2023-03-08T20:24:00.498Z,99.90
2023-03-08T20:26:29.931Z,99.90
2023-03-08T20:28:57.551Z,99.90
2023-03-08T20:31:25.113Z,99.90
2023-03-08T20:33:52.005Z,99.90
2023-03-08T20:36:18.875Z,99.90
2023-03-08T20:38:45.599Z,99.90
2023-03-08T20:41:20.708Z,99.90
2023-03-08T20:43:49.896Z,99.90
2023-03-08T20:46:21.244Z,99.90
2023-03-08T20:48:48.192Z,99.90
2023-03-08T20:51:19.292Z,99.90
2023-03-08T20:53:50.427Z,99.90
2023-03-08T20:56:21.739Z,99.90
2023-03-08T20:58:54.481Z,99.90
2023-03-08T21:01:28.510Z,99.90
2023-03-08T21:03:57.474Z,99.90
2023-03-08T21:06:27.204Z,99.90
2023-03-08T21:08:54.344Z,99.90
2023-03-08T21:11:21.519Z,99.90
2023-03-08T21:13:49.817Z,99.90
2023-03-08T21:16:18.517Z,99.90
2023-03-08T21:18:52.837Z,99.90
2023-03-08T21:21:19.543Z,99.90
2023-03-08T21:23:50.924Z,99.90
2023-03-08T21:26:17.858Z,99.90
2023-03-08T21:28:47.184Z,99.90
2023-03-08T21:31:17.390Z,99.90
2023-03-08T21:33:44.188Z,99.90
2023-03-08T21:36:11.162Z,99.90
2023-03-08T21:38:38.127Z,99.90
2023-03-08T21:41:05.023Z,99.90
2023-03-08T21:43:31.708Z,99.90
2023-03-08T21:46:00.783Z,99.90
2023-03-08T21:48:27.456Z,99.90
2023-03-08T21:50:54.102Z,99.90
2023-03-08T21:53:23.044Z,99.90
2023-03-08T21:55:52.404Z,99.90
2023-03-08T21:58:21.331Z,99.90
2023-03-08T22:00:48.012Z,99.90
2023-03-08T22:03:16.837Z,99.90
2023-03-08T22:05:43.750Z,99.90
2023-03-08T22:08:10.540Z,99.90
2023-03-08T22:10:39.770Z,99.90
2023-03-08T22:13:06.528Z,99.90
2023-03-08T22:15:35.655Z,99.90
2023-03-08T22:18:02.336Z,99.90
2023-03-08T22:20:33.716Z,99.90
2023-03-08T22:23:02.616Z,99.90
2023-03-08T22:25:29.393Z,99.90
2023-03-08T22:27:58.544Z,99.90
2023-03-08T22:30:27.341Z,99.90
2023-03-08T22:32:59.427Z,99.90
2023-03-08T22:35:26.165Z,99.90
2023-03-08T22:37:53.000Z,99.90
2023-03-08T22:40:19.687Z,99.90
2023-03-08T22:42:47.047Z,99.90
2023-03-08T22:45:13.883Z,99.90
2023-03-08T22:47:40.758Z,99.90
2023-03-08T22:50:10.554Z,99.90
2023-03-08T22:52:39.550Z,99.90
2023-03-08T22:55:09.044Z,99.90
2023-03-08T22:57:38.963Z,99.90
2023-03-08T23:00:14.306Z,99.90
2023-03-08T23:02:48.136Z,99.90
2023-03-08T23:05:24.076Z,99.90
2023-03-08T23:07:53.144Z,99.90
2023-03-08T23:10:20.054Z,99.90
2023-03-08T23:12:47.226Z,99.90
2023-03-08T23:15:13.886Z,99.90
2023-03-08T23:17:40.670Z,99.90
2023-03-08T23:20:07.908Z,99.90
2023-03-08T23:22:34.635Z,99.90
2023-03-08T23:25:01.392Z,99.90
2023-03-08T23:27:28.113Z,99.90
2023-03-08T23:29:54.863Z,99.90
2023-03-08T23:32:23.966Z,99.90
2023-03-08T23:34:52.894Z,99.90
2023-03-08T23:37:19.552Z,99.90
2023-03-08T23:39:46.305Z,99.90
2023-03-08T23:42:12.990Z,99.90
2023-03-08T23:44:41.975Z,99.90
2023-03-08T23:47:08.709Z,99.90
2023-03-08T23:49:35.392Z,99.90
2023-03-08T23:52:04.548Z,99.90
2023-03-08T23:54:33.480Z,99.90
2023-03-08T23:57:02.557Z,99.90
2023-03-08T23:59:29.373Z,99.90
